Burlington, Maine
Current Conditions -  °F | °C
As of 9:53 AM on Saturday 20 Dec 2014 (Local Time) from KMLT Reporting Station
Overcast Overcast  
Wind Chill: -10°   Ceiling: 1300
Heat Index: -10°   Visibility: 10mi
Dew Point: -12°   Wind: 0mph
Humidity: 88%   Direction: NA
Pressure: 30.37"   Gusts: NA
Location:  45.21°N, 68.43°W
Report Text: KMLT 201453Z AUTO 00000KT 10SM OVC013 M10/M12 A3037 RMK AO2 SLP297 T11001117 51018
Loading
Personal Weather Stations






























Interactive Weather Map New forecast layout! Learn more

10-Day Weather Forecast

Advertisements
Track Severe Weather on mobile